createdAt,value
2023-02-06T00:00:08.826Z,86.18
2023-02-06T00:02:38.997Z,86.51
2023-02-06T00:05:09.586Z,86.27
2023-02-06T00:07:39.695Z,85.97
2023-02-06T00:10:10.491Z,86.18
2023-02-06T00:12:40.531Z,86.57
2023-02-06T00:15:13.446Z,86.39
2023-02-06T00:17:43.656Z,86.59
2023-02-06T00:20:15.156Z,86.49
2023-02-06T00:22:45.212Z,86.51
2023-02-06T00:25:16.134Z,86.14
2023-02-06T00:27:46.210Z,86.17
2023-02-06T00:30:19.281Z,86.23
2023-02-06T00:32:50.059Z,86.01
2023-02-06T00:35:20.222Z,86.13
2023-02-06T00:37:50.380Z,85.85
2023-02-06T00:40:20.984Z,85.72
2023-02-06T00:42:51.231Z,85.45
2023-02-06T00:45:24.137Z,85.51
2023-02-06T00:47:57.448Z,85.81
2023-02-06T00:50:27.504Z,85.87
2023-02-06T00:52:57.689Z,85.94
2023-02-06T00:55:27.764Z,85.93
2023-02-06T00:57:58.381Z,86.29
2023-02-06T01:00:31.281Z,86.40
2023-02-06T01:03:01.451Z,86.02
2023-02-06T01:05:31.882Z,86.31
2023-02-06T01:08:04.270Z,86.26
2023-02-06T01:10:34.719Z,85.98
2023-02-06T01:13:04.794Z,85.97
2023-02-06T01:15:37.535Z,86.05
2023-02-06T01:18:08.137Z,86.26
2023-02-06T01:20:38.609Z,86.36
2023-02-06T01:23:08.828Z,86.26
2023-02-06T01:25:40.130Z,86.15
2023-02-06T01:28:10.228Z,86.29
2023-02-06T01:30:43.070Z,86.21
2023-02-06T01:33:13.364Z,86.17
2023-02-06T01:35:43.520Z,86.06
2023-02-06T01:38:14.006Z,86.19
2023-02-06T01:40:44.233Z,86.11
2023-02-06T01:43:19.712Z,85.99
2023-02-06T01:45:53.093Z,86.22
2023-02-06T01:48:25.384Z,86.13
2023-02-06T01:50:56.976Z,86.43
2023-02-06T01:53:27.785Z,85.99
2023-02-06T01:55:58.665Z,86.08
2023-02-06T01:58:30.921Z,86.14
2023-02-06T02:01:04.641Z,86.02
2023-02-06T02:03:38.784Z,86.38
2023-02-06T02:06:10.562Z,86.48
2023-02-06T02:08:42.963Z,86.32
2023-02-06T02:11:16.245Z,86.29
2023-02-06T02:13:46.507Z,86.34
2023-02-06T02:16:22.835Z,86.49
2023-02-06T02:19:02.518Z,86.80
2023-02-06T02:21:47.621Z,87.03
2023-02-06T02:24:24.635Z,86.85
2023-02-06T02:27:15.082Z,86.66
2023-02-06T02:30:07.624Z,86.83
2023-02-06T02:32:53.968Z,86.75
2023-02-06T02:35:30.994Z,86.75
2023-02-06T02:38:14.793Z,86.68
2023-02-06T02:40:48.684Z,86.86
2023-02-06T02:43:24.163Z,86.64
2023-02-06T02:45:57.466Z,86.60
2023-02-06T02:48:29.497Z,86.76
2023-02-06T02:51:03.246Z,86.50
2023-02-06T02:53:34.065Z,86.59
2023-02-06T02:56:04.513Z,86.36
2023-02-06T02:58:36.977Z,86.35
2023-02-06T03:01:08.936Z,86.59
2023-02-06T03:03:40.375Z,86.68
2023-02-06T03:06:29.436Z,86.80
2023-02-06T03:09:02.373Z,86.35
2023-02-06T03:11:32.789Z,86.52
2023-02-06T03:14:06.300Z,86.24
2023-02-06T03:16:39.813Z,85.93
2023-02-06T03:19:13.812Z,85.86
2023-02-06T03:21:48.564Z,85.89
2023-02-06T03:24:22.464Z,85.85
2023-02-06T03:26:55.093Z,86.08
2023-02-06T03:29:25.636Z,86.16
2023-02-06T03:31:58.127Z,86.13
2023-02-06T03:34:32.851Z,86.19
2023-02-06T03:37:05.769Z,86.23
2023-02-06T03:39:36.132Z,85.97
2023-02-06T03:42:07.451Z,85.94
2023-02-06T03:44:38.963Z,85.68
2023-02-06T03:47:11.016Z,85.86
2023-02-06T03:49:42.308Z,85.70
2023-02-06T03:52:16.662Z,85.61
2023-02-06T03:54:50.505Z,85.79
2023-02-06T03:57:22.048Z,86.04
2023-02-06T03:59:52.182Z,86.27
2023-02-06T04:02:23.802Z,86.43
2023-02-06T04:04:54.365Z,86.27
2023-02-06T04:07:28.472Z,86.02
2023-02-06T04:09:58.572Z,85.71
2023-02-06T04:12:28.837Z,86.24
2023-02-06T04:14:58.949Z,85.93
2023-02-06T04:17:46.372Z,86.21
2023-02-06T04:20:19.150Z,86.13
2023-02-06T04:22:52.042Z,85.95
2023-02-06T04:25:22.090Z,85.74
2023-02-06T04:27:52.456Z,85.72
2023-02-06T04:30:22.557Z,85.70
2023-02-06T04:32:52.898Z,86.08
2023-02-06T04:35:23.594Z,86.13
2023-02-06T04:37:56.339Z,86.24
2023-02-06T04:40:26.599Z,86.16
2023-02-06T04:42:56.599Z,85.67
2023-02-06T04:45:26.586Z,86.01
2023-02-06T04:47:59.181Z,86.35
2023-02-06T04:50:31.468Z,86.39
2023-02-06T04:53:04.115Z,86.41
2023-02-06T04:55:34.441Z,86.17
2023-02-06T04:58:04.879Z,86.07
2023-02-06T05:00:38.706Z,85.98
2023-02-06T05:03:08.977Z,86.07
2023-02-06T05:05:39.192Z,85.69
2023-02-06T05:08:11.896Z,86.05
2023-02-06T05:10:41.954Z,86.20
2023-02-06T05:13:12.037Z,86.12
2023-02-06T05:15:42.406Z,86.20
2023-02-06T05:18:12.550Z,86.21
2023-02-06T05:20:42.632Z,86.27
2023-02-06T05:23:15.550Z,86.32
2023-02-06T05:25:45.715Z,86.36
2023-02-06T05:28:15.966Z,86.47
2023-02-06T05:30:46.318Z,86.32
2023-02-06T05:33:16.493Z,86.11
2023-02-06T05:35:46.575Z,86.52
2023-02-06T05:38:19.298Z,86.53
2023-02-06T05:40:52.981Z,86.75
2023-02-06T05:43:23.136Z,86.64
2023-02-06T05:45:53.429Z,86.48
2023-02-06T05:48:23.499Z,86.27
2023-02-06T05:50:54.317Z,86.20
2023-02-06T05:53:26.916Z,86.44
2023-02-06T05:55:57.021Z,86.28
2023-02-06T05:58:27.112Z,86.20
2023-02-06T06:00:57.076Z,86.12
2023-02-06T06:03:27.152Z,86.14
2023-02-06T06:05:57.289Z,86.15
2023-02-06T06:08:30.171Z,85.81
2023-02-06T06:11:02.157Z,85.84
2023-02-06T06:13:32.731Z,85.96
2023-02-06T06:16:02.871Z,85.98
2023-02-06T06:18:33.046Z,86.38
2023-02-06T06:21:03.131Z,86.46
2023-02-06T06:23:35.858Z,86.82
2023-02-06T06:26:05.967Z,86.58
2023-02-06T06:28:38.609Z,86.80
2023-02-06T06:31:11.884Z,86.83
2023-02-06T06:33:42.399Z,87.12
2023-02-06T06:36:14.473Z,86.94
2023-02-06T06:38:47.151Z,86.95
2023-02-06T06:41:17.339Z,86.63
2023-02-06T06:43:47.449Z,86.61
2023-02-06T06:46:18.957Z,86.54
2023-02-06T06:48:51.153Z,86.19
2023-02-06T06:51:21.175Z,86.48
2023-02-06T06:53:53.995Z,86.25
2023-02-06T06:56:24.094Z,86.08
2023-02-06T06:58:54.214Z,86.02
2023-02-06T07:01:25.385Z,85.92
2023-02-06T07:03:56.360Z,85.90
2023-02-06T07:06:26.391Z,85.99
2023-02-06T07:08:59.247Z,85.60
2023-02-06T07:11:29.323Z,85.78
2023-02-06T07:13:59.445Z,85.88
2023-02-06T07:16:29.614Z,85.95
2023-02-06T07:19:00.069Z,85.92
2023-02-06T07:21:30.127Z,85.62
2023-02-06T07:24:07.725Z,85.85
2023-02-06T07:26:37.801Z,85.74
2023-02-06T07:29:07.806Z,85.64
2023-02-06T07:31:37.883Z,85.42
2023-02-06T07:34:08.016Z,85.02
2023-02-06T07:36:38.109Z,85.36
2023-02-06T07:39:10.781Z,85.02
2023-02-06T07:41:41.093Z,85.23
2023-02-06T07:44:13.010Z,85.37
2023-02-06T07:46:43.885Z,84.81
2023-02-06T07:49:14.998Z,85.18
2023-02-06T07:51:46.184Z,85.32
2023-02-06T07:54:20.821Z,85.16
2023-02-06T07:56:51.011Z,84.59
2023-02-06T07:59:21.211Z,84.51
2023-02-06T08:01:51.332Z,84.45
2023-02-06T08:04:21.570Z,84.38
2023-02-06T08:06:51.919Z,84.62
2023-02-06T08:09:24.633Z,84.32
2023-02-06T08:11:55.026Z,84.12
2023-02-06T08:14:25.376Z,84.53
2023-02-06T08:16:57.674Z,84.45
2023-02-06T08:19:28.025Z,84.42
2023-02-06T08:21:58.143Z,84.38
2023-02-06T08:24:31.053Z,84.14
2023-02-06T08:27:01.123Z,84.65
2023-02-06T08:29:31.400Z,84.13
2023-02-06T08:32:02.151Z,84.49
2023-02-06T08:34:32.409Z,84.36
2023-02-06T08:37:02.523Z,84.02
2023-02-06T08:39:35.388Z,84.08
2023-02-06T08:42:05.512Z,84.00
2023-02-06T08:44:35.636Z,83.56
2023-02-06T08:47:10.516Z,84.02
2023-02-06T08:49:40.951Z,83.87
2023-02-06T08:52:11.037Z,84.06
2023-02-06T08:54:43.741Z,83.76
2023-02-06T08:57:14.969Z,83.34
2023-02-06T08:59:45.609Z,83.01
2023-02-06T09:02:15.726Z,83.14
2023-02-06T09:04:46.123Z,83.04
2023-02-06T09:07:17.320Z,82.83
2023-02-06T09:09:50.130Z,82.42
2023-02-06T09:12:20.309Z,82.50
2023-02-06T09:14:50.618Z,81.85
2023-02-06T09:17:20.720Z,81.73
2023-02-06T09:19:51.129Z,82.14
2023-02-06T09:22:21.199Z,82.61
2023-02-06T09:24:54.306Z,82.83
2023-02-06T09:27:24.560Z,82.82
2023-02-06T09:29:54.927Z,82.29
2023-02-06T09:32:25.347Z,81.78
2023-02-06T09:34:55.605Z,81.81
2023-02-06T09:37:25.642Z,81.08
2023-02-06T09:39:58.230Z,80.84
2023-02-06T09:42:33.394Z,80.53
2023-02-06T09:45:05.461Z,80.19
2023-02-06T09:47:37.176Z,80.48
2023-02-06T09:50:09.351Z,80.56
2023-02-06T09:52:52.260Z,80.99
2023-02-06T09:55:40.620Z,80.75
2023-02-06T09:58:16.885Z,80.32
2023-02-06T10:00:49.527Z,80.28
2023-02-06T10:03:28.834Z,80.77
2023-02-06T10:06:05.549Z,80.04
2023-02-06T10:08:40.117Z,79.76
2023-02-06T10:11:15.859Z,80.13
2023-02-06T10:13:49.887Z,80.26
2023-02-06T10:16:28.642Z,79.56
2023-02-06T10:19:01.774Z,79.70
2023-02-06T10:21:35.103Z,79.28
2023-02-06T10:24:09.983Z,79.38
2023-02-06T10:26:43.254Z,79.24
2023-02-06T10:29:17.419Z,79.52
2023-02-06T10:31:53.018Z,79.66
2023-02-06T10:34:34.135Z,79.80
2023-02-06T10:37:11.818Z,79.46
2023-02-06T10:39:52.219Z,79.87
2023-02-06T10:42:30.074Z,79.97
2023-02-06T10:45:18.932Z,79.95
2023-02-06T10:47:54.401Z,79.82
2023-02-06T10:50:27.798Z,79.48
2023-02-06T10:52:59.110Z,79.87
2023-02-06T10:55:30.803Z,79.89
2023-02-06T10:58:07.453Z,80.02
2023-02-06T11:00:38.073Z,79.65
2023-02-06T11:03:09.550Z,79.98
2023-02-06T11:05:40.072Z,80.12
2023-02-06T11:08:13.736Z,80.15
2023-02-06T11:10:45.329Z,80.16
2023-02-06T11:13:22.958Z,80.42
2023-02-06T11:15:57.462Z,80.37
2023-02-06T11:18:31.497Z,79.69
2023-02-06T11:21:03.977Z,80.37
2023-02-06T11:23:35.555Z,80.12
2023-02-06T11:26:14.212Z,80.29
2023-02-06T11:28:52.880Z,79.83
2023-02-06T11:31:24.492Z,79.83
2023-02-06T11:33:55.694Z,80.02
2023-02-06T11:36:29.187Z,80.14
2023-02-06T11:39:00.749Z,78.26
2023-02-06T11:41:32.140Z,77.92
2023-02-06T11:44:06.709Z,78.12
2023-02-06T11:46:38.922Z,78.53
2023-02-06T11:49:10.610Z,78.75
2023-02-06T11:51:51.976Z,78.34
2023-02-06T11:54:24.300Z,78.55
2023-02-06T11:56:58.488Z,79.43
2023-02-06T11:59:33.894Z,79.53
2023-02-06T12:02:05.829Z,79.39
2023-02-06T12:04:39.146Z,78.02
2023-02-06T12:07:16.719Z,77.58
2023-02-06T12:09:46.770Z,77.89
2023-02-06T12:12:22.383Z,78.48
2023-02-06T12:14:57.685Z,77.71
2023-02-06T12:17:29.946Z,77.37
2023-02-06T12:20:02.938Z,77.86
2023-02-06T12:22:36.152Z,78.48
2023-02-06T12:25:07.292Z,76.73
2023-02-06T12:27:39.636Z,76.88
2023-02-06T12:30:30.567Z,76.31
2023-02-06T12:33:06.282Z,76.05
2023-02-06T12:35:39.316Z,74.33
2023-02-06T12:38:14.706Z,75.57
2023-02-06T12:40:51.149Z,75.57
2023-02-06T12:43:21.917Z,75.52
2023-02-06T12:45:58.333Z,75.35
2023-02-06T12:48:32.133Z,76.01
2023-02-06T12:51:10.137Z,76.05
2023-02-06T12:53:41.714Z,75.94
2023-02-06T12:56:16.325Z,75.87
2023-02-06T12:58:53.362Z,77.12
2023-02-06T13:01:38.843Z,77.11
2023-02-06T13:04:15.377Z,76.53
2023-02-06T13:06:49.450Z,75.79
2023-02-06T13:09:23.775Z,76.11
2023-02-06T13:11:54.848Z,75.85
2023-02-06T13:14:26.905Z,76.26
2023-02-06T13:17:00.135Z,76.75
2023-02-06T13:19:53.079Z,76.48
2023-02-06T13:22:47.106Z,76.23
2023-02-06T13:25:32.496Z,76.16
2023-02-06T13:28:03.577Z,76.61
2023-02-06T13:30:50.692Z,76.60
2023-02-06T13:33:22.346Z,76.03
2023-02-06T13:36:02.020Z,75.82
2023-02-06T13:38:38.850Z,76.00
2023-02-06T13:41:29.426Z,75.46
2023-02-06T13:44:00.729Z,76.21
2023-02-06T13:46:39.773Z,76.31
2023-02-06T13:49:19.200Z,75.79
2023-02-06T13:51:53.041Z,75.56
2023-02-06T13:54:43.486Z,75.62
2023-02-06T13:57:19.254Z,75.40
2023-02-06T13:59:51.960Z,75.11
2023-02-06T14:02:27.701Z,75.88
2023-02-06T14:04:58.428Z,76.32
2023-02-06T14:07:38.329Z,74.96
2023-02-06T14:10:30.065Z,75.24
2023-02-06T14:13:08.240Z,75.33
2023-02-06T14:15:41.455Z,75.96
2023-02-06T14:18:30.454Z,75.87
2023-02-06T14:21:05.000Z,76.29
2023-02-06T14:23:45.596Z,76.22
2023-02-06T14:26:21.372Z,75.81
2023-02-06T14:28:55.608Z,75.36
2023-02-06T14:31:36.015Z,74.41
2023-02-06T14:34:22.215Z,74.31
2023-02-06T14:37:03.385Z,74.30
2023-02-06T14:39:42.601Z,74.28
2023-02-06T14:42:15.909Z,74.35
2023-02-06T14:44:46.985Z,74.39
2023-02-06T14:47:19.444Z,73.39
2023-02-06T14:49:50.778Z,74.23
2023-02-06T14:52:22.810Z,74.36
2023-02-06T14:54:55.981Z,74.76
2023-02-06T14:57:28.210Z,74.30
2023-02-06T14:59:59.912Z,74.61
2023-02-06T15:02:32.219Z,74.94
2023-02-06T15:05:03.098Z,74.37
2023-02-06T15:07:34.554Z,74.98
2023-02-06T15:10:09.428Z,74.42
2023-02-06T15:12:39.917Z,74.41
2023-02-06T15:15:20.346Z,74.32
2023-02-06T15:18:00.133Z,74.24
2023-02-06T15:20:37.638Z,74.42
2023-02-06T15:23:17.565Z,74.66
2023-02-06T15:26:04.612Z,74.66
2023-02-06T15:28:38.282Z,74.68
2023-02-06T15:31:18.076Z,74.87
2023-02-06T15:33:51.116Z,74.96
2023-02-06T15:36:25.630Z,75.15
2023-02-06T15:38:55.823Z,75.04
2023-02-06T15:41:30.887Z,75.03
2023-02-06T15:44:03.640Z,75.21
2023-02-06T15:46:33.985Z,75.46
2023-02-06T15:49:04.385Z,75.14
2023-02-06T15:51:42.276Z,75.22
2023-02-06T15:54:20.819Z,75.46
2023-02-06T15:56:54.924Z,75.39
2023-02-06T15:59:26.522Z,75.39
2023-02-06T16:01:58.341Z,75.53
2023-02-06T16:04:30.938Z,75.78
2023-02-06T16:07:03.474Z,75.89
2023-02-06T16:09:34.759Z,75.66
2023-02-06T16:12:07.945Z,75.69
2023-02-06T16:14:39.695Z,75.93
2023-02-06T16:17:26.551Z,76.05
2023-02-06T16:19:57.884Z,75.79
2023-02-06T16:22:29.064Z,75.99
2023-02-06T16:25:14.570Z,76.23
2023-02-06T16:27:48.342Z,76.16
2023-02-06T16:30:28.402Z,75.95
2023-02-06T16:32:59.295Z,76.11
2023-02-06T16:35:30.602Z,76.09
2023-02-06T16:38:00.693Z,76.42
2023-02-06T16:40:30.975Z,76.34
2023-02-06T16:43:03.922Z,76.08
2023-02-06T16:45:34.091Z,76.16
2023-02-06T16:48:04.168Z,76.31
2023-02-06T16:50:35.781Z,76.38
2023-02-06T16:53:06.253Z,76.28
2023-02-06T16:55:37.026Z,76.33
2023-02-06T16:58:09.701Z,76.55
2023-02-06T17:00:39.782Z,76.41
2023-02-06T17:03:10.484Z,76.73
2023-02-06T17:05:41.743Z,76.69
2023-02-06T17:08:16.519Z,76.82
2023-02-06T17:10:47.128Z,76.85
2023-02-06T17:13:21.313Z,76.71
2023-02-06T17:15:53.125Z,77.03
2023-02-06T17:18:23.776Z,76.93
2023-02-06T17:20:56.299Z,77.10
2023-02-06T17:23:26.653Z,76.91
2023-02-06T17:25:56.725Z,76.88
2023-02-06T17:28:29.474Z,77.10
2023-02-06T17:30:59.948Z,77.07
2023-02-06T17:33:30.151Z,77.14
2023-02-06T17:36:00.359Z,77.34
2023-02-06T17:38:30.668Z,77.71
2023-02-06T17:41:00.699Z,77.63
2023-02-06T17:43:36.257Z,77.84
2023-02-06T17:46:06.400Z,77.69
2023-02-06T17:48:41.254Z,78.04
2023-02-06T17:51:11.327Z,78.18
2023-02-06T17:53:41.393Z,77.87
2023-02-06T17:56:13.269Z,78.24
2023-02-06T17:58:46.508Z,77.84
2023-02-06T18:01:17.407Z,77.86
2023-02-06T18:03:48.107Z,77.57
2023-02-06T18:06:18.323Z,77.66
2023-02-06T18:08:48.740Z,77.85
2023-02-06T18:11:19.895Z,77.72
2023-02-06T18:13:53.773Z,77.85
2023-02-06T18:16:25.003Z,77.96
2023-02-06T18:18:55.769Z,77.97
2023-02-06T18:21:29.405Z,77.90
2023-02-06T18:24:00.375Z,77.80
2023-02-06T18:26:30.532Z,78.17
2023-02-06T18:29:05.440Z,77.94
2023-02-06T18:31:37.912Z,78.17
2023-02-06T18:34:09.864Z,78.16
2023-02-06T18:36:40.798Z,78.19
2023-02-06T18:39:10.928Z,78.21
2023-02-06T18:41:53.539Z,77.99
2023-02-06T18:44:26.777Z,77.86
2023-02-06T18:46:57.005Z,77.94
2023-02-06T18:49:27.040Z,78.12
2023-02-06T18:51:57.155Z,77.85
2023-02-06T18:54:28.302Z,77.87
2023-02-06T18:56:58.402Z,78.09
2023-02-06T18:59:31.213Z,78.16
2023-02-06T19:02:01.653Z,77.92
2023-02-06T19:04:31.826Z,77.74
2023-02-06T19:07:02.144Z,78.12
2023-02-06T19:09:32.266Z,78.00
2023-02-06T19:12:02.474Z,78.09
2023-02-06T19:14:35.165Z,78.45
2023-02-06T19:17:05.246Z,78.22
2023-02-06T19:19:35.400Z,78.24
2023-02-06T19:22:05.761Z,77.92
2023-02-06T19:24:35.940Z,78.19
2023-02-06T19:27:05.964Z,77.90
2023-02-06T19:29:38.831Z,78.18
2023-02-06T19:32:10.069Z,77.94
2023-02-06T19:34:41.072Z,78.00
2023-02-06T19:37:12.687Z,78.15
2023-02-06T19:39:44.503Z,77.85
2023-02-06T19:42:16.960Z,78.24
2023-02-06T19:44:53.874Z,78.20
2023-02-06T19:47:24.322Z,78.09
2023-02-06T19:49:55.075Z,78.17
2023-02-06T19:52:26.154Z,78.33
2023-02-06T19:54:56.397Z,78.52
2023-02-06T19:57:26.443Z,78.38
2023-02-06T19:59:59.293Z,78.63
2023-02-06T20:02:29.477Z,78.71
2023-02-06T20:05:02.319Z,78.83
2023-02-06T20:07:33.003Z,78.60
2023-02-06T20:10:03.609Z,78.79
2023-02-06T20:12:33.944Z,78.66
2023-02-06T20:15:06.976Z,78.73
2023-02-06T20:17:37.133Z,78.49
2023-02-06T20:20:07.986Z,78.69
2023-02-06T20:22:40.094Z,78.65
2023-02-06T20:25:12.110Z,78.81
2023-02-06T20:27:42.232Z,78.79
2023-02-06T20:30:15.619Z,78.61
2023-02-06T20:32:45.858Z,78.67
2023-02-06T20:35:16.125Z,78.75
2023-02-06T20:37:46.249Z,78.53
2023-02-06T20:40:17.782Z,78.66
2023-02-06T20:42:47.945Z,78.83
2023-02-06T20:45:21.052Z,79.00
2023-02-06T20:47:51.372Z,78.92
2023-02-06T20:50:21.498Z,78.94
2023-02-06T20:52:51.791Z,79.19
2023-02-06T20:55:22.079Z,79.25
2023-02-06T20:57:52.853Z,79.23
2023-02-06T21:00:25.846Z,79.33
2023-02-06T21:02:56.180Z,79.33
2023-02-06T21:05:26.446Z,79.13
2023-02-06T21:07:57.636Z,79.30
2023-02-06T21:10:27.990Z,79.35
2023-02-06T21:12:58.216Z,79.38
2023-02-06T21:15:31.132Z,79.66
2023-02-06T21:18:01.662Z,79.77
2023-02-06T21:20:32.255Z,80.01
2023-02-06T21:23:02.967Z,80.03
2023-02-06T21:25:33.166Z,79.75
2023-02-06T21:28:03.495Z,79.86
2023-02-06T21:30:36.725Z,79.58
2023-02-06T21:33:07.225Z,79.67
2023-02-06T21:35:39.503Z,79.70
2023-02-06T21:38:09.929Z,79.84
2023-02-06T21:40:39.996Z,79.47
2023-02-06T21:43:10.074Z,79.98
2023-02-06T21:45:43.135Z,79.88
2023-02-06T21:48:13.301Z,79.98
2023-02-06T21:50:45.085Z,79.78
2023-02-06T21:53:15.253Z,80.07
2023-02-06T21:55:45.646Z,79.97
2023-02-06T21:58:17.154Z,79.73
2023-02-06T22:00:50.383Z,79.97
2023-02-06T22:03:22.886Z,79.98
2023-02-06T22:05:53.078Z,80.13
2023-02-06T22:08:23.639Z,80.02
2023-02-06T22:10:53.775Z,80.18
2023-02-06T22:13:24.028Z,80.20
2023-02-06T22:15:57.438Z,80.38
2023-02-06T22:18:28.856Z,80.20
2023-02-06T22:21:05.632Z,80.62
2023-02-06T22:23:36.018Z,80.81
2023-02-06T22:26:06.928Z,80.62
2023-02-06T22:28:37.420Z,80.60
2023-02-06T22:31:11.152Z,80.63
2023-02-06T22:33:41.770Z,80.98
2023-02-06T22:36:13.022Z,80.94
2023-02-06T22:38:44.385Z,81.39
2023-02-06T22:41:15.772Z,81.62
2023-02-06T22:43:46.931Z,81.60
2023-02-06T22:46:23.754Z,81.41
2023-02-06T22:48:54.460Z,81.38
2023-02-06T22:51:25.012Z,81.46
2023-02-06T22:53:55.269Z,81.83
2023-02-06T22:56:34.974Z,81.88
2023-02-06T22:59:06.127Z,82.22
2023-02-06T23:01:39.926Z,82.11
2023-02-06T23:04:11.538Z,82.42
2023-02-06T23:06:41.965Z,82.47
2023-02-06T23:09:15.026Z,82.55
2023-02-06T23:11:45.461Z,82.82
2023-02-06T23:14:16.638Z,82.90
2023-02-06T23:16:50.005Z,82.65
2023-02-06T23:19:20.847Z,82.90
2023-02-06T23:21:51.908Z,82.75
2023-02-06T23:24:22.336Z,83.11
2023-02-06T23:26:53.938Z,82.95
2023-02-06T23:29:24.952Z,83.09
2023-02-06T23:31:58.603Z,83.32
2023-02-06T23:34:28.874Z,83.29
2023-02-06T23:36:59.046Z,83.39
2023-02-06T23:39:29.289Z,82.97
2023-02-06T23:41:59.477Z,83.20
2023-02-06T23:44:29.929Z,83.29
2023-02-06T23:47:03.027Z,83.30
2023-02-06T23:49:33.232Z,83.43
2023-02-06T23:52:03.325Z,83.48
2023-02-06T23:54:33.597Z,83.67
2023-02-06T23:57:03.723Z,83.72
2023-02-06T23:59:33.940Z,83.64
